createdAt,value
2022-10-13T00:01:21.111Z,15.77
2022-10-13T00:03:50.274Z,17.17
2022-10-13T00:06:24.649Z,17.00
2022-10-13T00:08:55.607Z,15.57
2022-10-13T00:11:27.248Z,13.43
2022-10-13T00:13:58.872Z,14.70
2022-10-13T00:16:31.544Z,15.03
2022-10-13T00:18:59.962Z,18.33
2022-10-13T00:21:30.203Z,17.03
2022-10-13T00:23:59.659Z,17.23
2022-10-13T00:26:28.240Z,13.93
2022-10-13T00:28:57.367Z,18.33
2022-10-13T00:31:51.850Z,17.50
2022-10-13T00:34:23.063Z,12.77
2022-10-13T00:36:51.080Z,16.00
2022-10-13T00:39:20.618Z,13.80
2022-10-13T00:41:48.643Z,17.13
2022-10-13T00:45:03.790Z,12.87
2022-10-13T00:47:38.278Z,14.57
2022-10-13T00:50:11.267Z,19.30
2022-10-13T00:52:42.472Z,14.03
2022-10-13T00:55:18.493Z,14.40
2022-10-13T00:57:54.572Z,14.27
2022-10-13T01:00:44.621Z,16.57
2022-10-13T01:03:26.296Z,14.13
2022-10-13T01:06:07.842Z,15.87
2022-10-13T01:08:37.087Z,15.50
2022-10-13T01:11:54.477Z,17.43
2022-10-13T01:14:45.783Z,14.57
2022-10-13T01:17:32.615Z,14.43
2022-10-13T01:20:57.900Z,16.60
2022-10-13T01:24:10.036Z,15.63
2022-10-13T01:27:29.978Z,17.97
2022-10-13T01:30:09.008Z,17.80
2022-10-13T01:33:04.414Z,14.90
2022-10-13T01:35:52.796Z,14.50
2022-10-13T01:38:34.382Z,17.57
2022-10-13T01:41:12.865Z,16.27
2022-10-13T01:43:48.573Z,22.23
2022-10-13T01:46:23.905Z,15.87
2022-10-13T01:48:56.003Z,18.70
2022-10-13T01:51:27.946Z,13.97
2022-10-13T01:53:56.089Z,22.53
2022-10-13T01:56:24.291Z,20.23
2022-10-13T02:02:57.962Z,20.30
2022-10-13T02:05:35.800Z,18.57
2022-10-13T02:08:08.547Z,18.10
2022-10-13T02:10:45.739Z,18.60
2022-10-13T02:13:18.771Z,19.20
2022-10-13T02:15:50.973Z,19.90
2022-10-13T02:18:26.919Z,18.30
2022-10-13T02:20:56.150Z,16.10
2022-10-13T02:23:24.910Z,17.13
2022-10-13T02:25:52.932Z,15.53
2022-10-13T02:28:21.377Z,17.17
2022-10-13T02:30:49.428Z,22.03
2022-10-13T02:33:18.172Z,20.20
2022-10-13T02:35:47.696Z,14.67
2022-10-13T02:38:15.878Z,20.13
2022-10-13T02:40:43.937Z,20.57
2022-10-13T02:43:11.976Z,17.27
2022-10-13T02:45:40.004Z,18.00
2022-10-13T02:48:08.146Z,17.77
2022-10-13T02:51:00.240Z,21.60
2022-10-13T02:53:29.610Z,19.10
2022-10-13T02:56:02.246Z,15.83
2022-10-13T02:58:57.324Z,19.23
2022-10-13T03:01:25.392Z,17.93
2022-10-13T03:03:53.371Z,22.37
2022-10-13T03:06:21.461Z,16.00
2022-10-13T03:08:51.233Z,25.07
2022-10-13T03:11:19.289Z,17.13
2022-10-13T03:13:47.307Z,16.93
2022-10-13T03:16:15.396Z,15.23
2022-10-13T03:18:43.467Z,24.47
2022-10-13T03:21:11.922Z,19.80
2022-10-13T03:23:40.588Z,18.57
2022-10-13T03:26:10.006Z,16.50
2022-10-13T03:28:38.119Z,25.83
2022-10-13T03:31:11.353Z,20.17
2022-10-13T03:33:40.499Z,20.10
2022-10-13T03:36:09.107Z,14.57
2022-10-13T03:38:37.395Z,22.20
2022-10-13T03:41:12.038Z,18.87
2022-10-13T03:43:41.164Z,16.23
2022-10-13T03:46:11.088Z,18.60
2022-10-13T03:48:39.386Z,18.70
2022-10-13T03:51:08.690Z,20.17
2022-10-13T03:53:37.420Z,15.93
2022-10-13T03:56:07.814Z,26.87
2022-10-13T03:58:42.691Z,20.30
2022-10-13T04:01:13.643Z,18.40
2022-10-13T04:03:43.607Z,20.73
2022-10-13T04:06:11.798Z,23.97
2022-10-13T04:08:40.042Z,20.93
2022-10-13T04:11:12.519Z,20.37
2022-10-13T04:13:44.338Z,17.90
2022-10-13T04:16:19.214Z,15.83
2022-10-13T04:18:52.665Z,17.37
2022-10-13T04:21:20.866Z,18.93
2022-10-13T04:23:49.212Z,20.93
2022-10-13T04:26:19.414Z,20.23
2022-10-13T04:28:51.170Z,21.67
2022-10-13T04:31:21.916Z,17.00
2022-10-13T04:33:50.451Z,15.23
2022-10-13T04:36:19.668Z,16.87
2022-10-13T04:38:51.807Z,20.87
2022-10-13T04:41:20.953Z,21.47
2022-10-13T04:43:51.211Z,20.00
2022-10-13T04:46:22.039Z,21.10
2022-10-13T04:48:51.448Z,19.37
2022-10-13T04:51:24.639Z,21.83
2022-10-13T04:53:56.569Z,17.13
2022-10-13T04:56:25.186Z,22.57
2022-10-13T04:58:54.902Z,20.90
2022-10-13T05:01:25.420Z,19.63
2022-10-13T05:03:54.838Z,18.73
2022-10-13T05:06:24.996Z,20.70
2022-10-13T05:08:57.484Z,21.50
2022-10-13T05:11:26.757Z,21.60
2022-10-13T05:13:57.379Z,16.20
2022-10-13T05:16:26.410Z,19.43
2022-10-13T05:18:56.158Z,19.73
2022-10-13T05:21:27.127Z,17.10
2022-10-13T05:23:56.442Z,20.27
2022-10-13T05:26:28.768Z,20.07
2022-10-13T05:28:58.829Z,15.63
2022-10-13T05:31:34.976Z,18.20
2022-10-13T05:34:03.906Z,20.43
2022-10-13T05:36:34.959Z,20.37
2022-10-13T05:39:07.367Z,19.33
2022-10-13T05:41:35.489Z,25.33
2022-10-13T05:44:10.177Z,13.67
2022-10-13T05:46:43.470Z,15.50
2022-10-13T05:49:11.880Z,15.70
2022-10-13T05:51:44.453Z,14.23
2022-10-13T05:54:19.988Z,18.07
2022-10-13T05:56:53.748Z,20.17
2022-10-13T05:59:27.242Z,18.37
2022-10-13T06:01:56.085Z,16.53
2022-10-13T06:04:32.730Z,17.63
2022-10-13T06:07:00.996Z,16.47
2022-10-13T06:09:35.664Z,14.73
2022-10-13T06:12:03.708Z,15.13
2022-10-13T06:14:33.137Z,15.57
2022-10-13T06:17:03.136Z,14.03
2022-10-13T06:19:31.227Z,15.77
2022-10-13T06:22:07.575Z,14.33
2022-10-13T06:24:35.736Z,17.40
2022-10-13T06:27:05.629Z,18.83
2022-10-13T06:29:35.165Z,19.53
2022-10-13T06:32:03.280Z,17.80
2022-10-13T06:34:31.438Z,15.23
2022-10-13T06:36:59.463Z,17.63
2022-10-13T06:39:27.551Z,17.67
2022-10-13T06:41:55.771Z,15.53
2022-10-13T06:44:31.971Z,18.50
2022-10-13T06:47:10.500Z,16.53
2022-10-13T06:49:41.255Z,17.83
2022-10-13T06:52:13.291Z,16.03
2022-10-13T06:54:41.871Z,15.40
2022-10-13T06:57:12.309Z,18.27
2022-10-13T06:59:40.411Z,20.27
2022-10-13T07:02:11.231Z,17.83
2022-10-13T07:04:39.287Z,14.87
2022-10-13T07:07:07.377Z,16.57
2022-10-13T07:09:35.456Z,16.23
2022-10-13T07:12:04.758Z,17.73
2022-10-13T07:14:32.754Z,15.23
2022-10-13T07:17:01.003Z,15.07
2022-10-13T07:19:30.400Z,17.47
2022-10-13T07:21:58.782Z,20.77
2022-10-13T07:24:27.687Z,18.63
2022-10-13T07:26:55.744Z,20.87
2022-10-13T07:29:23.896Z,13.33
2022-10-13T07:31:52.054Z,18.03
2022-10-13T07:34:20.062Z,16.13
2022-10-13T07:36:49.419Z,16.90
2022-10-13T07:39:17.503Z,12.20
2022-10-13T07:41:50.184Z,18.70
2022-10-13T07:44:19.342Z,16.43
2022-10-13T07:46:47.462Z,15.50
2022-10-13T07:49:16.453Z,13.43
2022-10-13T07:51:44.878Z,13.73
2022-10-13T07:54:14.779Z,15.70
2022-10-13T07:56:42.888Z,13.60
2022-10-13T07:59:11.920Z,17.33
2022-10-13T08:01:40.907Z,16.30
2022-10-13T08:04:09.138Z,14.27
2022-10-13T08:06:37.432Z,14.67
2022-10-13T08:09:10.400Z,13.27
2022-10-13T08:11:39.907Z,15.27
2022-10-13T08:14:08.009Z,16.43
2022-10-13T08:16:36.034Z,16.87
2022-10-13T08:19:04.163Z,13.00
2022-10-13T08:24:22.416Z,17.87
2022-10-13T08:26:52.008Z,17.87
2022-10-13T08:29:23.087Z,14.60
2022-10-13T08:31:53.567Z,18.77
2022-10-13T08:34:23.099Z,20.40
2022-10-13T08:36:54.223Z,16.83
2022-10-13T08:39:25.500Z,17.87
2022-10-13T08:41:57.679Z,13.80
2022-10-13T08:47:37.140Z,21.50
2022-10-13T08:50:13.550Z,15.80
2022-10-13T08:52:49.399Z,16.80
2022-10-13T08:55:26.279Z,15.77
2022-10-13T08:57:56.254Z,16.53
2022-10-13T09:00:27.868Z,16.87
2022-10-13T09:03:09.115Z,16.13
2022-10-13T09:05:47.847Z,17.73
2022-10-13T09:08:20.511Z,13.30
2022-10-13T09:10:50.827Z,15.47
2022-10-13T09:13:27.192Z,12.87
2022-10-13T09:15:56.406Z,11.47
2022-10-13T09:18:31.778Z,12.50
2022-10-13T09:21:21.077Z,16.43
2022-10-13T09:23:53.980Z,18.80
2022-10-13T09:26:25.231Z,13.87
2022-10-13T09:28:54.703Z,13.07
2022-10-13T09:31:27.969Z,15.30
2022-10-13T09:34:02.788Z,12.63
2022-10-13T09:36:31.678Z,12.13
2022-10-13T09:39:12.552Z,12.97
2022-10-13T09:41:42.661Z,14.67
2022-10-13T09:44:15.612Z,18.37
2022-10-13T09:46:51.585Z,12.50
2022-10-13T09:49:37.351Z,13.77
2022-10-13T09:52:19.077Z,12.10
2022-10-13T09:54:51.014Z,16.43
2022-10-13T09:57:29.187Z,15.00
2022-10-13T10:00:13.296Z,12.03
2022-10-13T10:02:50.468Z,12.63
2022-10-13T10:05:26.679Z,15.43
2022-10-13T10:08:05.135Z,13.80
2022-10-13T10:10:37.965Z,15.77
2022-10-13T10:13:12.130Z,16.23
2022-10-13T10:15:54.012Z,14.00
2022-10-13T10:18:32.769Z,12.67
2022-10-13T10:21:08.016Z,10.83
2022-10-13T10:23:47.294Z,18.07
2022-10-13T10:26:26.684Z,10.57
2022-10-13T10:29:18.496Z,14.27
2022-10-13T10:32:05.443Z,10.40
2022-10-13T10:34:41.713Z,12.47
2022-10-13T10:37:21.401Z,11.20
2022-10-13T10:40:04.614Z,9.97
2022-10-13T10:43:04.074Z,15.83
2022-10-13T10:45:38.362Z,12.50
2022-10-13T10:48:19.146Z,9.70
2022-10-13T10:50:48.320Z,10.03
2022-10-13T10:53:30.115Z,12.83
2022-10-13T10:56:09.088Z,9.20
2022-10-13T10:58:45.247Z,10.37
2022-10-13T11:01:33.708Z,8.70
2022-10-13T11:04:42.734Z,10.70
2022-10-13T11:07:32.438Z,7.73
2022-10-13T11:10:18.943Z,10.47
2022-10-13T11:13:22.158Z,8.03
2022-10-13T11:15:50.440Z,8.73
2022-10-13T11:18:59.179Z,8.67
2022-10-13T11:22:14.135Z,9.37
2022-10-13T11:25:44.686Z,8.20
2022-10-13T11:28:47.356Z,7.27
2022-10-13T11:31:33.618Z,17.13
2022-10-13T11:34:04.586Z,19.40
2022-10-13T11:36:58.498Z,13.27
2022-10-13T11:39:59.259Z,43.73
2022-10-13T11:43:21.771Z,64.30
2022-10-13T11:46:15.830Z,19.30
2022-10-13T11:49:28.491Z,11.33
2022-10-13T11:52:14.691Z,7.37
2022-10-13T11:54:51.345Z,8.50
2022-10-13T11:57:22.745Z,7.27
2022-10-13T11:59:55.285Z,6.20
2022-10-13T12:02:29.693Z,10.90
2022-10-13T12:05:05.026Z,9.00
2022-10-13T12:07:42.915Z,9.80
2022-10-13T12:10:21.878Z,9.20
2022-10-13T12:12:51.287Z,7.67
2022-10-13T12:15:36.325Z,8.67
2022-10-13T12:18:20.059Z,7.70
2022-10-13T12:20:54.368Z,7.27
2022-10-13T12:23:23.928Z,8.30
2022-10-13T12:25:57.762Z,11.00
2022-10-13T12:28:29.279Z,7.80
2022-10-13T12:30:59.411Z,6.90
2022-10-13T12:33:32.535Z,8.93
2022-10-13T12:36:18.024Z,11.17
2022-10-13T12:38:52.288Z,8.20
2022-10-13T12:41:27.362Z,8.43
2022-10-13T12:43:57.643Z,9.03
2022-10-13T12:46:41.933Z,10.83
2022-10-13T12:49:16.960Z,13.50
2022-10-13T12:51:49.297Z,8.03
2022-10-13T12:54:25.331Z,9.50
2022-10-13T12:56:57.791Z,5.90
2022-10-13T12:59:28.391Z,6.77
2022-10-13T13:02:00.788Z,7.77
2022-10-13T13:04:42.665Z,8.70
2022-10-13T13:07:30.598Z,12.17
2022-10-13T13:10:17.377Z,6.70
2022-10-13T13:12:46.523Z,8.30
2022-10-13T13:15:33.811Z,15.00
2022-10-13T13:18:31.385Z,10.60
2022-10-13T13:21:01.790Z,7.30
2022-10-13T13:23:34.165Z,5.30
2022-10-13T13:26:14.088Z,7.43
2022-10-13T13:28:46.912Z,7.27
2022-10-13T13:31:16.388Z,7.03
2022-10-13T13:33:44.740Z,7.97
2022-10-13T13:36:17.930Z,6.10
2022-10-13T13:38:47.978Z,7.77
2022-10-13T13:41:19.964Z,10.27
2022-10-13T13:43:48.143Z,4.97
2022-10-13T13:46:19.452Z,9.20
2022-10-13T13:48:47.737Z,6.47
2022-10-13T13:51:16.808Z,6.23
2022-10-13T13:53:45.606Z,6.70
2022-10-13T13:56:15.331Z,5.40
2022-10-13T13:58:45.080Z,8.60
2022-10-13T14:01:13.977Z,10.70
2022-10-13T14:03:42.306Z,6.00
2022-10-13T14:06:21.335Z,11.23
2022-10-13T14:08:49.990Z,9.63
2022-10-13T14:11:18.315Z,9.53
2022-10-13T14:13:47.732Z,12.17
2022-10-13T14:16:26.966Z,11.37
2022-10-13T14:18:56.983Z,9.57
2022-10-13T14:21:26.661Z,11.13
2022-10-13T14:23:58.188Z,12.37
2022-10-13T14:26:26.516Z,12.40
2022-10-13T14:28:56.050Z,10.80
2022-10-13T14:31:24.067Z,14.03
2022-10-13T14:33:54.273Z,12.23
2022-10-13T14:36:25.300Z,12.00
2022-10-13T14:38:54.785Z,11.17
2022-10-13T14:41:23.015Z,12.33
2022-10-13T14:43:55.613Z,11.13
2022-10-13T14:46:24.191Z,13.73
2022-10-13T14:48:52.633Z,13.00
2022-10-13T14:51:20.976Z,11.43
2022-10-13T14:53:49.156Z,11.73
2022-10-13T14:56:20.931Z,12.53
2022-10-13T14:58:57.480Z,11.37
2022-10-13T15:01:30.715Z,11.13
2022-10-13T15:03:58.803Z,11.17
2022-10-13T15:06:28.355Z,13.97
2022-10-13T15:08:57.105Z,13.70
2022-10-13T15:11:27.156Z,14.13
2022-10-13T15:13:56.709Z,9.83
2022-10-13T15:16:28.959Z,11.20
2022-10-13T15:18:57.762Z,12.47
2022-10-13T15:21:26.278Z,13.07
2022-10-13T15:23:54.310Z,12.07
2022-10-13T15:26:22.720Z,12.03
2022-10-13T15:28:53.597Z,9.63
2022-10-13T15:31:24.387Z,14.67
2022-10-13T15:33:54.827Z,13.40
2022-10-13T15:36:25.573Z,12.87
2022-10-13T15:38:53.687Z,12.90
2022-10-13T15:41:24.006Z,14.90
2022-10-13T15:43:52.295Z,16.00
2022-10-13T15:46:26.175Z,11.57
2022-10-13T15:48:55.616Z,10.20
2022-10-13T15:51:26.992Z,13.20
2022-10-13T15:53:56.009Z,12.43
2022-10-13T15:56:24.619Z,10.00
2022-10-13T15:58:52.654Z,14.20
2022-10-13T16:01:22.130Z,10.97
2022-10-13T16:03:54.304Z,10.03
2022-10-13T16:06:22.430Z,15.70
2022-10-13T16:08:50.446Z,11.97
2022-10-13T16:11:22.348Z,13.83
2022-10-13T16:13:53.308Z,12.20
2022-10-13T16:16:27.944Z,11.40
2022-10-13T16:18:56.036Z,12.20
2022-10-13T16:21:26.852Z,12.87
2022-10-13T16:23:55.375Z,21.47
2022-10-13T16:26:24.940Z,15.33
2022-10-13T16:28:56.765Z,13.20
2022-10-13T16:31:26.223Z,11.90
2022-10-13T16:33:55.411Z,10.63
2022-10-13T16:36:25.091Z,11.60
2022-10-13T16:38:55.239Z,10.83
2022-10-13T16:41:23.667Z,11.43
2022-10-13T16:43:51.947Z,15.73
2022-10-13T16:46:21.536Z,11.00
2022-10-13T16:48:50.929Z,12.97
2022-10-13T16:51:22.310Z,10.43
2022-10-13T16:53:51.494Z,12.93
2022-10-13T16:56:22.107Z,11.17
2022-10-13T16:58:50.970Z,14.50
2022-10-13T17:01:19.307Z,11.17
2022-10-13T17:03:50.575Z,14.50
2022-10-13T17:06:21.419Z,16.60
2022-10-13T17:08:56.000Z,15.17
2022-10-13T17:11:26.926Z,13.03
2022-10-13T17:13:57.405Z,17.53
2022-10-13T17:16:26.135Z,12.77
2022-10-13T17:18:55.846Z,17.70
2022-10-13T17:21:26.433Z,17.50
2022-10-13T17:23:56.522Z,17.00
2022-10-13T17:26:24.802Z,12.00
2022-10-13T17:28:52.967Z,32.33
2022-10-13T17:31:24.371Z,36.63
2022-10-13T17:33:53.488Z,43.40
2022-10-13T17:36:25.725Z,34.43
2022-10-13T17:38:56.096Z,24.00
2022-10-13T17:41:25.494Z,23.30
2022-10-13T17:43:53.906Z,18.70
2022-10-13T17:46:36.347Z,80.60
2022-10-13T17:49:06.005Z,228.20
2022-10-13T17:51:36.127Z,318.30
2022-10-13T17:54:05.043Z,192.53
2022-10-13T17:56:33.531Z,90.57
2022-10-13T17:59:02.849Z,49.23
2022-10-13T18:01:33.449Z,14.13
2022-10-13T18:04:03.923Z,13.13
2022-10-13T18:06:39.873Z,10.03
2022-10-13T18:09:10.699Z,11.73
2022-10-13T18:11:39.570Z,12.13
2022-10-13T18:14:09.139Z,11.43
2022-10-13T18:16:42.564Z,17.50
2022-10-13T18:19:14.032Z,16.33
2022-10-13T18:21:43.578Z,14.27
2022-10-13T18:24:12.392Z,15.83
2022-10-13T18:26:40.901Z,15.63
2022-10-13T18:29:12.615Z,10.53
2022-10-13T18:31:47.864Z,13.13
2022-10-13T18:34:18.680Z,15.17
2022-10-13T18:36:51.235Z,12.23
2022-10-13T18:39:22.520Z,13.50
2022-10-13T18:41:51.505Z,15.47
2022-10-13T18:44:20.663Z,12.00
2022-10-13T18:46:51.298Z,12.23
2022-10-13T18:49:22.897Z,10.83
2022-10-13T18:51:52.983Z,11.27
2022-10-13T18:54:21.063Z,11.63
2022-10-13T18:56:49.789Z,10.07
2022-10-13T18:59:17.927Z,13.00
2022-10-13T19:01:46.222Z,9.80
2022-10-13T19:04:16.727Z,15.43
2022-10-13T19:06:44.994Z,19.33
2022-10-13T19:09:17.226Z,20.43
2022-10-13T19:11:46.107Z,12.17
2022-10-13T19:14:17.622Z,16.77
2022-10-13T19:16:46.140Z,13.33
2022-10-13T19:19:14.545Z,13.50
2022-10-13T19:21:42.901Z,11.10
2022-10-13T19:24:12.479Z,13.73
2022-10-13T19:26:42.247Z,11.57
2022-10-13T19:29:12.425Z,16.77
2022-10-13T19:31:42.338Z,11.70
2022-10-13T19:34:11.872Z,12.90
2022-10-13T19:36:42.811Z,9.83
2022-10-13T19:39:16.643Z,11.00
2022-10-13T19:41:48.163Z,10.87
2022-10-13T19:44:18.087Z,14.00
2022-10-13T19:46:47.793Z,12.83
2022-10-13T19:49:19.134Z,12.53
2022-10-13T19:51:49.015Z,12.40
2022-10-13T19:54:19.666Z,20.37
2022-10-13T19:56:50.474Z,13.53
2022-10-13T19:59:21.207Z,15.17
2022-10-13T20:01:49.282Z,16.30
2022-10-13T20:04:20.450Z,14.03
2022-10-13T20:06:49.909Z,9.87
2022-10-13T20:09:18.324Z,11.23
2022-10-13T20:11:48.771Z,12.53
2022-10-13T20:14:17.852Z,11.00
2022-10-13T20:16:46.348Z,10.53
2022-10-13T20:19:19.301Z,27.03
2022-10-13T20:21:51.436Z,13.70
2022-10-13T20:24:20.470Z,12.43
2022-10-13T20:26:50.532Z,11.40
2022-10-13T20:29:23.243Z,9.50
2022-10-13T20:31:51.560Z,11.93
2022-10-13T20:34:19.710Z,11.57
2022-10-13T20:36:50.106Z,12.83
2022-10-13T20:39:18.248Z,17.17
2022-10-13T20:41:46.263Z,10.50
2022-10-13T20:44:16.591Z,8.87
2022-10-13T20:46:44.706Z,9.40
2022-10-13T20:49:13.559Z,8.47
2022-10-13T20:51:43.181Z,9.20
2022-10-13T20:54:12.595Z,13.53
2022-10-13T20:56:41.178Z,10.97
2022-10-13T20:59:12.035Z,12.97
2022-10-13T21:01:42.174Z,13.03
2022-10-13T21:04:11.216Z,8.27
2022-10-13T21:06:39.297Z,9.10
2022-10-13T21:09:07.635Z,9.03
2022-10-13T21:11:37.083Z,10.70
2022-10-13T21:14:06.881Z,9.13
2022-10-13T21:16:36.292Z,11.17
2022-10-13T21:19:08.525Z,18.40
2022-10-13T21:21:38.861Z,16.17
2022-10-13T21:24:09.447Z,14.97
2022-10-13T21:26:38.291Z,11.63
2022-10-13T21:29:06.728Z,10.60
2022-10-13T21:31:35.242Z,6.73
2022-10-13T21:34:03.309Z,9.73
2022-10-13T21:36:33.862Z,11.90
2022-10-13T21:39:05.001Z,10.63
2022-10-13T21:41:34.392Z,11.33
2022-10-13T21:44:02.744Z,8.67
2022-10-13T21:46:34.132Z,7.43
2022-10-13T21:49:06.014Z,11.27
2022-10-13T21:51:39.019Z,7.63
2022-10-13T21:54:09.919Z,10.00
2022-10-13T21:56:39.022Z,10.00
2022-10-13T21:59:08.003Z,7.67
2022-10-13T22:01:36.485Z,8.87
2022-10-13T22:04:12.621Z,6.87
2022-10-13T22:06:42.049Z,10.10
2022-10-13T22:09:10.600Z,11.33
2022-10-13T22:11:39.896Z,10.30
2022-10-13T22:14:14.605Z,7.67
2022-10-13T22:16:45.412Z,8.90
2022-10-13T22:19:14.467Z,8.60
2022-10-13T22:21:46.863Z,7.23
2022-10-13T22:24:17.524Z,8.90
2022-10-13T22:26:46.790Z,14.47
2022-10-13T22:29:19.108Z,11.80
2022-10-13T22:31:48.688Z,10.23
2022-10-13T22:34:17.475Z,9.73
2022-10-13T22:36:46.961Z,12.07
2022-10-13T22:39:16.153Z,8.17
2022-10-13T22:41:44.876Z,11.27
2022-10-13T22:44:13.396Z,9.73
2022-10-13T22:46:41.963Z,10.83
2022-10-13T22:49:14.609Z,13.03
2022-10-13T22:51:42.675Z,13.10
2022-10-13T22:54:13.199Z,11.57
2022-10-13T22:56:42.204Z,11.53
2022-10-13T22:59:11.939Z,12.60
2022-10-13T23:01:39.983Z,10.50
2022-10-13T23:04:08.279Z,11.40
2022-10-13T23:06:37.086Z,9.63
2022-10-13T23:09:09.180Z,11.60
2022-10-13T23:11:39.112Z,7.63
2022-10-13T23:14:09.337Z,8.93
2022-10-13T23:16:37.578Z,7.90
2022-10-13T23:19:05.790Z,7.67
2022-10-13T23:21:34.099Z,9.70
2022-10-13T23:24:04.850Z,6.63
2022-10-13T23:26:34.643Z,11.37
2022-10-13T23:29:04.622Z,10.00
2022-10-13T23:31:33.404Z,7.70
2022-10-13T23:34:01.427Z,9.93
2022-10-13T23:36:32.156Z,7.50
2022-10-13T23:39:03.047Z,7.53
2022-10-13T23:41:31.678Z,8.40
2022-10-13T23:43:59.966Z,10.63
2022-10-13T23:46:29.547Z,8.67
2022-10-13T23:48:57.815Z,9.63
2022-10-13T23:51:27.352Z,9.07
2022-10-13T23:53:56.388Z,7.83
2022-10-13T23:56:24.565Z,8.03
2022-10-13T23:58:52.626Z,7.37
